Time;durP1;ratioP1;P1;durP2;ratioP2;P2;SDS_P1;SDS_P2;PMS_P1;PMS_P2;Temp;Humidity;BMP_temperature;BMP_pressure;BME280_temperature;BME280_humidity;BME280_pressure;Samples;Min_cycle;Max_cycle;Signal;HPM_P1;HPM_P2
2021/01/05 00:01:03;;;;;;;72.30;31.27;;;;;;;;;;5037089;28;20040;-82
2021/01/05 00:03:29;;;;;;;67.50;30.40;;;;;;;;;;5036642;28;20041;-82
2021/01/05 00:05:55;;;;;;;61.88;30.10;;;;;;;;;;5037039;28;20045;-83
2021/01/05 00:08:21;;;;;;;60.30;28.13;;;;;;;;;;5037213;28;20045;-83
2021/01/05 00:10:47;;;;;;;63.13;28.98;;;;;;;;;;5037278;28;20022;-82
2021/01/05 00:13:13;;;;;;;55.15;27.10;;;;;;;;;;5036056;28;20017;-81
2021/01/05 00:15:39;;;;;;;56.00;29.83;;;;;;;;;;5037128;28;20031;-81
2021/01/05 00:18:06;;;;;;;52.05;27.10;;;;;;;;;;5037062;28;20021;-81
2021/01/05 00:20:32;;;;;;;49.50;25.35;;;;;;;;;;5036330;28;20136;-81
2021/01/05 00:22:59;;;;;;;54.35;25.88;;;;;;;;;;5035652;28;20109;-81
2021/01/05 00:25:27;;;;;;;53.33;26.90;;;;;;;;;;5036844;28;20351;-81
2021/01/05 00:27:53;;;;;;;55.20;27.08;;;;;;;;;;5036140;28;20033;-82
2021/01/05 00:30:21;;;;;;;54.53;27.50;;;;;;;;;;5037248;28;20033;-82
2021/01/05 00:32:48;;;;;;;61.40;29.33;;;;;;;;;;5036931;28;20035;-82
2021/01/05 00:35:16;;;;;;;58.92;28.02;;;;;;;;;;5035988;28;20427;-82
2021/01/05 00:37:42;;;;;;;63.50;29.95;;;;;;;;;;5037015;28;20439;-82
2021/01/05 00:40:08;;;;;;;57.50;28.30;;;;;;;;;;5036910;28;20056;-82
2021/01/05 00:42:35;;;;;;;60.28;29.33;;;;;;;;;;5035700;28;20059;-82
2021/01/05 00:45:01;;;;;;;60.33;30.25;;;;;;;;;;5036671;28;20018;-81
2021/01/05 00:47:27;;;;;;;55.92;29.15;;;;;;;;;;5036710;28;20010;-82
2021/01/05 00:49:53;;;;;;;60.50;30.60;;;;;;;;;;5036626;28;20068;-81
2021/01/05 00:52:20;;;;;;;64.60;32.85;;;;;;;;;;5035663;28;20036;-82
2021/01/05 00:54:46;;;;;;;60.10;31.00;;;;;;;;;;5036757;28;20104;-81
2021/01/05 00:57:12;;;;;;;59.15;30.83;;;;;;;;;;5036460;28;20025;-81
2021/01/05 00:59:38;;;;;;;57.90;29.52;;;;;;;;;;5036947;28;20072;-81
2021/01/05 01:02:05;;;;;;;61.47;29.67;;;;;;;;;;5036575;28;20416;-80
2021/01/05 01:04:32;;;;;;;56.20;28.17;;;;;;;;;;5036545;28;20049;-81
2021/01/05 01:06:58;;;;;;;62.88;28.23;;;;;;;;;;5036662;28;20042;-81
2021/01/05 01:09:24;;;;;;;58.67;29.08;;;;;;;;;;5036629;28;20034;-81
2021/01/05 01:12:09;;;;;;;54.00;27.10;;;;;;;;;;5036560;28;20327;-82
2021/01/05 01:14:35;;;;;;;57.03;28.45;;;;;;;;;;5036614;28;20101;-80
2021/01/05 01:17:01;;;;;;;54.78;27.77;;;;;;;;;;5036349;28;20032;-81
2021/01/05 01:19:27;;;;;;;58.88;29.20;;;;;;;;;;5036503;28;20029;-81
2021/01/05 01:21:54;;;;;;;58.55;28.10;;;;;;;;;;5036769;28;20351;-81
2021/01/05 01:24:21;;;;;;;59.28;30.65;;;;;;;;;;5036474;28;20018;-82
2021/01/05 01:26:47;;;;;;;53.83;27.23;;;;;;;;;;5036444;28;20018;-82
2021/01/05 01:29:20;;;;;;;55.88;27.55;;;;;;;;;;5035370;28;20029;-81
2021/01/05 01:31:47;;;;;;;59.83;28.90;;;;;;;;;;5036359;28;20038;-82
2021/01/05 01:34:15;;;;;;;59.38;30.52;;;;;;;;;;5036546;28;20025;-81
2021/01/05 01:36:41;;;;;;;60.13;29.83;;;;;;;;;;5040013;28;20032;-81
2021/01/05 01:39:08;;;;;;;69.40;31.88;;;;;;;;;;5039721;28;20022;-81
2021/01/05 01:41:34;;;;;;;62.60;31.13;;;;;;;;;;5038519;28;20160;-81
2021/01/05 01:44:00;;;;;;;68.05;31.90;;;;;;;;;;5039778;28;20506;-81
2021/01/05 01:46:31;;;;;;;70.65;33.47;;;;;;;;;;5038686;28;20037;-81
2021/01/05 01:48:57;;;;;;;72.22;32.85;;;;;;;;;;5039619;28;20044;-81
2021/01/05 01:51:23;;;;;;;76.03;33.78;;;;;;;;;;5039630;28;20029;-81
2021/01/05 01:54:08;;;;;;;81.93;35.35;;;;;;;;;;5039808;28;20025;-81
2021/01/05 01:56:34;;;;;;;76.95;34.33;;;;;;;;;;5039616;28;20108;-81
2021/01/05 01:59:22;;;;;;;84.38;34.80;;;;;;;;;;5039425;28;20487;-81
2021/01/05 02:01:54;;;;;;;87.43;35.83;;;;;;;;;;5039442;28;20026;-81
2021/01/05 02:04:39;;;;;;;84.80;36.10;;;;;;;;;;5039422;28;20021;-81
2021/01/05 02:07:11;;;;;;;86.45;34.05;;;;;;;;;;5039342;28;20052;-81
2021/01/05 02:09:56;;;;;;;70.57;32.88;;;;;;;;;;5038274;28;20034;-81
2021/01/05 02:12:28;;;;;;;80.05;32.65;;;;;;;;;;5039319;28;20052;-82
2021/01/05 02:15:15;;;;;;;73.05;32.50;;;;;;;;;;5039680;28;20026;-81
2021/01/05 02:18:00;;;;;;;73.28;33.00;;;;;;;;;;5039452;28;20033;-82
2021/01/05 02:20:26;;;;;;;73.72;33.63;;;;;;;;;;5038079;28;20033;-81
2021/01/05 02:23:04;;;;;;;71.35;31.77;;;;;;;;;;5039271;28;20022;-82
2021/01/05 02:25:37;;;;;;;74.30;32.45;;;;;;;;;;5038947;28;20117;-81
2021/01/05 02:28:04;;;;;;;86.43;35.42;;;;;;;;;;5039318;28;20013;-81
2021/01/05 02:30:35;;;;;;;82.85;35.03;;;;;;;;;;5038801;28;20113;-81
2021/01/05 02:33:19;;;;;;;80.22;34.30;;;;;;;;;;5037684;28;20041;-81
2021/01/05 02:36:00;;;;;;;83.05;34.75;;;;;;;;;;5038797;28;20423;-81
2021/01/05 02:38:33;;;;;;;89.35;35.17;;;;;;;;;;5038682;28;20064;-81
2021/01/05 02:41:08;;;;;;;88.10;35.42;;;;;;;;;;5037947;28;20064;-80
2021/01/05 02:43:34;;;;;;;80.40;32.17;;;;;;;;;;5038700;28;20029;-81
2021/01/05 02:46:10;;;;;;;85.63;33.60;;;;;;;;;;5038314;28;20044;-81
2021/01/05 02:48:48;;;;;;;78.47;32.47;;;;;;;;;;5038380;28;20022;-80
2021/01/05 02:51:17;;;;;;;66.60;28.70;;;;;;;;;;5038416;28;20022;-81
2021/01/05 02:53:47;;;;;;;72.22;29.88;;;;;;;;;;5038732;28;20025;-80
2021/01/05 02:56:19;;;;;;;62.85;28.58;;;;;;;;;;5037383;28;20021;-81
2021/01/05 02:58:56;;;;;;;63.80;29.75;;;;;;;;;;5038306;28;20025;-81
2021/01/05 03:01:46;;;;;;;63.95;29.45;;;;;;;;;;5037272;28;20025;-81
2021/01/05 03:04:12;;;;;;;60.92;29.27;;;;;;;;;;5037241;28;20032;-81
2021/01/05 03:07:01;;;;;;;60.45;29.60;;;;;;;;;;5038005;28;20048;-81
2021/01/05 03:09:30;;;;;;;55.30;27.50;;;;;;;;;;5036386;28;20091;-81
2021/01/05 03:12:08;;;;;;;59.00;29.83;;;;;;;;;;5036325;28;20085;-81
2021/01/05 03:14:53;;;;;;;62.35;31.55;;;;;;;;;;5036261;28;20416;-81
2021/01/05 03:17:34;;;;;;;56.00;28.95;;;;;;;;;;5019131;28;20084;-80
2021/01/05 03:20:15;;;;;;;62.05;29.70;;;;;;;;;;5035970;28;20041;-80
2021/01/05 03:22:48;;;;;;;66.38;31.98;;;;;;;;;;5036122;28;20036;-81
2021/01/05 03:25:14;;;;;;;65.40;32.50;;;;;;;;;;5035968;28;20017;-80
2021/01/05 03:27:40;;;;;;;59.03;31.00;;;;;;;;;;5035932;28;20034;-80
2021/01/05 03:30:12;;;;;;;61.67;30.50;;;;;;;;;;5035881;28;20030;-80
2021/01/05 03:32:38;;;;;;;58.38;28.55;;;;;;;;;;5035735;28;20544;-80
2021/01/05 03:35:05;;;;;;;59.63;30.30;;;;;;;;;;5035837;28;20033;-80
2021/01/05 03:37:31;;;;;;;61.83;29.27;;;;;;;;;;5035856;28;20033;-80
2021/01/05 03:39:57;;;;;;;63.05;28.98;;;;;;;;;;5035863;28;20179;-82
2021/01/05 03:42:23;;;;;;;60.78;28.75;;;;;;;;;;5019194;28;20045;-82
2021/01/05 03:44:49;;;;;;;57.92;28.02;;;;;;;;;;5035776;28;20025;-81
2021/01/05 03:47:15;;;;;;;60.08;28.10;;;;;;;;;;5036903;28;20112;-81
2021/01/05 03:49:41;;;;;;;59.95;28.42;;;;;;;;;;5037364;28;20029;-80
2021/01/05 03:52:07;;;;;;;62.65;28.83;;;;;;;;;;5037515;28;20072;-81
2021/01/05 03:54:33;;;;;;;63.72;30.25;;;;;;;;;;5037090;28;20026;-79
2021/01/05 03:56:59;;;;;;;61.30;28.58;;;;;;;;;;5036894;28;20418;-78
2021/01/05 03:59:25;;;;;;;61.38;29.42;;;;;;;;;;5037164;28;20494;-78
2021/01/05 04:01:54;;;;;;;57.65;28.73;;;;;;;;;;5037252;28;20300;-79
2021/01/05 04:04:20;;;;;;;62.53;29.30;;;;;;;;;;5037158;28;20017;-79
2021/01/05 04:06:47;;;;;;;59.03;27.45;;;;;;;;;;5036037;28;20033;-80
2021/01/05 04:09:13;;;;;;;57.45;27.42;;;;;;;;;;5037233;28;20033;-81
2021/01/05 04:11:39;;;;;;;58.40;28.35;;;;;;;;;;5037152;28;20026;-80
2021/01/05 04:14:05;;;;;;;59.63;29.35;;;;;;;;;;5037200;28;20159;-81
2021/01/05 04:16:32;;;;;;;57.03;28.15;;;;;;;;;;5036964;28;20044;-80
2021/01/05 04:18:59;;;;;;;64.88;28.98;;;;;;;;;;5035975;28;20112;-80
2021/01/05 04:21:25;;;;;;;55.00;28.27;;;;;;;;;;5037018;28;20021;-80
2021/01/05 04:23:51;;;;;;;58.80;28.73;;;;;;;;;;5037109;28;20030;-80
2021/01/05 04:26:17;;;;;;;60.70;28.52;;;;;;;;;;5036861;28;20056;-80
2021/01/05 04:28:43;;;;;;;67.47;31.10;;;;;;;;;;5036937;28;20104;-80
2021/01/05 04:31:09;;;;;;;65.10;32.83;;;;;;;;;;5036966;28;20079;-80
2021/01/05 04:33:35;;;;;;;69.82;34.25;;;;;;;;;;5036785;28;20034;-80
2021/01/05 04:36:01;;;;;;;67.93;34.42;;;;;;;;;;5035856;28;20116;-80
2021/01/05 04:38:27;;;;;;;86.72;42.05;;;;;;;;;;5036810;28;20025;-80
2021/01/05 04:40:53;;;;;;;71.88;38.00;;;;;;;;;;5037144;28;20344;-80
2021/01/05 04:43:25;;;;;;;72.97;35.25;;;;;;;;;;5035721;28;20300;-80
2021/01/05 04:45:51;;;;;;;;;;;;;;;;;;5037191;28;20021;-80
2021/01/05 04:48:36;;;;;;;59.00;30.70;;;;;;;;;;5036663;28;20310;-80
2021/01/05 04:51:03;;;;;;;59.17;30.10;;;;;;;;;;5037048;28;20346;-80
2021/01/05 04:53:37;;;;;;;52.38;27.65;;;;;;;;;;5036816;28;20021;-80
2021/01/05 04:56:06;;;;;;;50.90;26.27;;;;;;;;;;5036697;28;20044;-80
2021/01/05 04:58:38;;;;;;;47.03;24.63;;;;;;;;;;5036619;28;20083;-80
2021/01/05 05:01:07;;;;;;;43.72;23.30;;;;;;;;;;5036550;28;20025;-80
2021/01/05 05:03:39;;;;;;;44.13;22.80;;;;;;;;;;5037006;28;20033;-79
2021/01/05 05:06:13;;;;;;;37.40;21.40;;;;;;;;;;5036537;28;20301;-80
2021/01/05 05:08:47;;;;;;;39.17;21.45;;;;;;;;;;5037332;28;20045;-79
2021/01/05 05:11:17;;;;;;;30.73;18.02;;;;;;;;;;5040401;28;20028;-79
2021/01/05 05:13:47;;;;;;;32.95;18.83;;;;;;;;;;5039537;28;20423;-79
2021/01/05 05:16:16;;;;;;;31.77;17.88;;;;;;;;;;5040038;28;20340;-79
2021/01/05 05:19:01;;;;;;;30.70;17.33;;;;;;;;;;5047734;28;20446;-79
2021/01/05 05:21:27;;;;;;;32.65;18.75;;;;;;;;;;5060116;28;20032;-80
2021/01/05 05:23:56;;;;;;;33.30;18.90;;;;;;;;;;5060129;28;20025;-79
2021/01/05 05:26:25;;;;;;;35.42;18.23;;;;;;;;;;5060032;28;20538;-81
2021/01/05 05:28:57;;;;;;;36.85;20.15;;;;;;;;;;5060191;28;20044;-79
2021/01/05 05:31:25;;;;;;;38.72;20.70;;;;;;;;;;5058689;28;20110;-79
2021/01/05 05:33:54;;;;;;;46.63;23.63;;;;;;;;;;5059868;28;20033;-79
2021/01/05 05:36:31;;;;;;;42.08;21.77;;;;;;;;;;5059841;28;20025;-79
2021/01/05 05:39:03;;;;;;;40.85;22.45;;;;;;;;;;5059703;28;20082;-80
2021/01/05 05:41:45;;;;;;;47.70;23.92;;;;;;;;;;5059744;28;20402;-80
2021/01/05 05:44:14;;;;;;;43.77;23.40;;;;;;;;;;5059511;28;20067;-79
2021/01/05 05:46:45;;;;;;;40.00;22.45;;;;;;;;;;5059690;28;20048;-80
2021/01/05 05:49:33;;;;;;;41.28;21.98;;;;;;;;;;5059501;28;20021;-79
2021/01/05 05:52:02;;;;;;;43.83;23.83;;;;;;;;;;5059445;28;20052;-80
2021/01/05 05:54:28;;;;;;;46.45;23.98;;;;;;;;;;5059337;28;20039;-80
2021/01/05 05:56:59;;;;;;;47.60;22.67;;;;;;;;;;5059557;28;20029;-79
2021/01/05 05:59:46;;;;;;;49.22;25.33;;;;;;;;;;5058320;28;20071;-80
2021/01/05 06:02:19;;;;;;;53.20;26.45;;;;;;;;;;5059048;28;20116;-80
2021/01/05 06:04:45;;;;;;;51.90;25.73;;;;;;;;;;5059269;28;20411;-79
2021/01/05 06:07:12;;;;;;;50.92;24.70;;;;;;;;;;5059155;28;20049;-80
2021/01/05 06:09:38;;;;;;;55.20;25.90;;;;;;;;;;5059185;28;20063;-80
2021/01/05 06:12:06;;;;;;;53.60;24.90;;;;;;;;;;5059340;28;20025;-80
2021/01/05 06:14:32;;;;;;;63.13;26.85;;;;;;;;;;5059127;28;20021;-80
2021/01/05 06:16:58;;;;;;;63.22;26.55;;;;;;;;;;5059066;28;20342;-82
2021/01/05 06:19:24;;;;;;;59.55;26.95;;;;;;;;;;5059180;28;20025;-81
2021/01/05 06:21:50;;;;;;;61.90;25.42;;;;;;;;;;5058544;28;20096;-81
2021/01/05 06:24:16;;;;;;;56.28;25.35;;;;;;;;;;5058966;28;20021;-81
2021/01/05 06:26:42;;;;;;;53.55;23.55;;;;;;;;;;5059032;28;20017;-81
2021/01/05 06:29:08;;;;;;;61.33;24.75;;;;;;;;;;5057914;28;20025;-82
2021/01/05 06:31:34;;;;;;;70.22;28.80;;;;;;;;;;5059060;28;20131;-82
2021/01/05 06:34:00;;;;;;;71.30;29.10;;;;;;;;;;5058881;28;20358;-81
2021/01/05 06:36:26;;;;;;;72.45;29.90;;;;;;;;;;5058860;28;20370;-81
2021/01/05 06:38:52;;;;;;;69.60;30.58;;;;;;;;;;5058773;28;20025;-81
2021/01/05 06:41:18;;;;;;;70.15;29.88;;;;;;;;;;5058671;28;20021;-82
2021/01/05 06:43:44;;;;;;;61.58;27.80;;;;;;;;;;5058647;28;20017;-82
2021/01/05 06:46:10;;;;;;;60.05;28.08;;;;;;;;;;5058776;28;20060;-81
2021/01/05 06:48:36;;;;;;;74.35;32.83;;;;;;;;;;5058797;28;20032;-81
2021/01/05 06:51:06;;;;;;;71.30;32.17;;;;;;;;;;5058395;28;20419;-81
2021/01/05 06:53:32;;;;;;;65.70;31.02;;;;;;;;;;5058402;28;20029;-82
2021/01/05 06:55:58;;;;;;;63.75;31.88;;;;;;;;;;5058464;28;20028;-81
2021/01/05 06:58:24;;;;;;;63.85;32.13;;;;;;;;;;5058280;28;20033;-81
2021/01/05 07:00:50;;;;;;;63.88;33.88;;;;;;;;;;5058183;28;20053;-81
2021/01/05 07:03:16;;;;;;;81.07;44.72;;;;;;;;;;5057148;28;20304;-82
2021/01/05 07:05:42;;;;;;;88.38;50.35;;;;;;;;;;5057083;28;20342;-81
2021/01/05 07:08:08;;;;;;;80.68;41.97;;;;;;;;;;5058037;28;20418;-81
2021/01/05 07:10:34;;;;;;;77.95;43.15;;;;;;;;;;5057069;28;20469;-81
2021/01/05 07:13:00;;;;;;;107.20;56.58;;;;;;;;;;5058109;28;20024;-81
2021/01/05 07:15:27;;;;;;;109.70;58.70;;;;;;;;;;5058077;28;20041;-81
2021/01/05 07:17:53;;;;;;;70.18;33.03;;;;;;;;;;5058188;28;20016;-81
2021/01/05 07:20:19;;;;;;;61.38;30.13;;;;;;;;;;5058017;28;20029;-81
2021/01/05 07:22:45;;;;;;;60.03;30.30;;;;;;;;;;5057842;28;20028;-81
2021/01/05 07:25:12;;;;;;;62.80;28.20;;;;;;;;;;5056759;28;20031;-81
2021/01/05 07:27:39;;;;;;;73.13;33.20;;;;;;;;;;5057901;28;20051;-81
2021/01/05 07:30:06;;;;;;;70.47;32.00;;;;;;;;;;5056799;28;20378;-81
2021/01/05 07:32:32;;;;;;;61.28;29.52;;;;;;;;;;5055708;28;20037;-82
2021/01/05 07:34:58;;;;;;;59.08;29.58;;;;;;;;;;5056668;28;20037;-81
2021/01/05 07:37:26;;;;;;;62.05;31.83;;;;;;;;;;5057560;28;20025;-82
2021/01/05 07:39:52;;;;;;;60.25;27.80;;;;;;;;;;5056466;28;20037;-82
2021/01/05 07:42:21;;;;;;;56.38;29.75;;;;;;;;;;5056531;28;20355;-81
2021/01/05 07:44:48;;;;;;;59.90;31.92;;;;;;;;;;5057576;28;20028;-82
2021/01/05 07:47:15;;;;;;;59.17;32.45;;;;;;;;;;5057308;28;20425;-81
2021/01/05 07:49:41;;;;;;;50.78;26.83;;;;;;;;;;5057556;28;20025;-81
2021/01/05 07:52:22;;;;;;;48.97;26.50;;;;;;;;;;5057394;28;20029;-81
2021/01/05 07:54:48;;;;;;;50.95;25.60;;;;;;;;;;5057509;28;20082;-81
2021/01/05 07:57:14;;;;;;;50.55;27.58;;;;;;;;;;5057303;28;20029;-80
2021/01/05 07:59:40;;;;;;;56.55;30.02;;;;;;;;;;5056885;28;20029;-81
2021/01/05 08:02:07;;;;;;;60.47;32.40;;;;;;;;;;5056170;28;20044;-82
2021/01/05 08:04:33;;;;;;;59.17;29.45;;;;;;;;;;5056869;28;20026;-81
2021/01/05 08:06:59;;;;;;;61.83;29.48;;;;;;;;;;5056004;28;20044;-82
2021/01/05 08:09:25;;;;;;;47.45;24.88;;;;;;;;;;5057190;28;20059;-81
2021/01/05 08:11:52;;;;;;;55.90;30.23;;;;;;;;;;5057050;28;20116;-81
2021/01/05 08:14:18;;;;;;;60.95;29.02;;;;;;;;;;5057097;28;20086;-82
2021/01/05 08:16:48;;;;;;;54.92;25.85;;;;;;;;;;5057052;28;20032;-82
2021/01/05 08:19:14;;;;;;;53.17;25.73;;;;;;;;;;5056897;28;20116;-81
2021/01/05 08:21:40;;;;;;;64.43;29.75;;;;;;;;;;5055636;28;20424;-81
2021/01/05 08:24:06;;;;;;;60.97;30.58;;;;;;;;;;5056977;28;20415;-81
2021/01/05 08:26:32;;;;;;;65.97;30.65;;;;;;;;;;5056904;28;20468;-81
2021/01/05 08:28:58;;;;;;;55.28;29.30;;;;;;;;;;5056840;28;20056;-81
2021/01/05 08:31:31;;;;;;;66.60;31.55;;;;;;;;;;5055715;28;20044;-81
2021/01/05 08:33:57;;;;;;;63.90;31.73;;;;;;;;;;5056641;28;20061;-81
2021/01/05 08:36:27;;;;;;;54.58;30.55;;;;;;;;;;5056548;28;20036;-81
2021/01/05 08:38:53;;;;;;;64.60;33.22;;;;;;;;;;5056859;28;20110;-81
2021/01/05 08:41:19;;;;;;;54.30;29.75;;;;;;;;;;5056806;28;20041;-81
2021/01/05 08:43:45;;;;;;;53.92;29.75;;;;;;;;;;5057725;28;20024;-81
2021/01/05 08:46:11;;;;;;;53.10;28.65;;;;;;;;;;5061035;28;20027;-81
2021/01/05 08:48:37;;;;;;;60.85;32.72;;;;;;;;;;5060913;28;20059;-81
2021/01/05 08:51:03;;;;;;;76.97;38.90;;;;;;;;;;5060731;28;20040;-81
2021/01/05 08:53:29;;;;;;;107.93;46.15;;;;;;;;;;5059612;28;20033;-80
2021/01/05 08:55:55;;;;;;;64.38;30.65;;;;;;;;;;5060601;28;20029;-81
2021/01/05 08:58:21;;;;;;;71.43;32.05;;;;;;;;;;5060526;28;20025;-80
2021/01/05 09:00:47;;;;;;;73.43;31.70;;;;;;;;;;5059120;28;20033;-81
2021/01/05 09:03:13;;;;;;;54.20;25.33;;;;;;;;;;5060839;28;20033;-81
2021/01/05 09:05:40;;;;;;;72.00;35.50;;;;;;;;;;5059411;28;20306;-79
2021/01/05 09:08:06;;;;;;;67.10;31.73;;;;;;;;;;5060326;28;20041;-81
2021/01/05 09:10:33;;;;;;;115.82;61.75;;;;;;;;;;5060414;28;20032;-79
2021/01/05 09:12:59;;;;;;;86.90;36.55;;;;;;;;;;5060331;28;20024;-81
2021/01/05 09:15:25;;;;;;;71.40;32.55;;;;;;;;;;5058947;28;20124;-81
2021/01/05 09:17:51;;;;;;;65.22;28.02;;;;;;;;;;5060507;28;20025;-81
2021/01/05 09:20:24;;;;;;;53.25;28.02;;;;;;;;;;5060404;28;20138;-81
2021/01/05 09:22:50;;;;;;;54.47;27.30;;;;;;;;;;5060093;28;20017;-81
2021/01/05 09:25:16;;;;;;;60.75;29.30;;;;;;;;;;5060077;28;20017;-81
2021/01/05 09:27:42;;;;;;;62.65;28.70;;;;;;;;;;5060085;28;20028;-82
2021/01/05 09:30:12;;;;;;;58.33;29.17;;;;;;;;;;5060016;28;20406;-82
2021/01/05 09:32:38;;;;;;;65.07;32.03;;;;;;;;;;5059905;28;20037;-81
2021/01/05 09:35:05;;;;;;;82.05;36.95;;;;;;;;;;5059896;28;20036;-81
2021/01/05 09:37:31;;;;;;;79.47;35.28;;;;;;;;;;5058835;28;20045;-82
2021/01/05 09:39:57;;;;;;;74.40;33.85;;;;;;;;;;5059794;28;20032;-82
2021/01/05 09:42:23;;;;;;;55.72;30.00;;;;;;;;;;5059701;28;20047;-81
2021/01/05 09:44:50;;;;;;;72.10;35.97;;;;;;;;;;5059795;28;20032;-81
2021/01/05 09:47:20;;;;;;;61.55;34.42;;;;;;;;;;5058867;28;20403;-81
2021/01/05 09:49:46;;;;;;;57.70;32.42;;;;;;;;;;5059796;28;20029;-81
2021/01/05 09:52:12;;;;;;;62.80;35.38;;;;;;;;;;5059882;28;20017;-81
2021/01/05 09:54:38;;;;;;;59.72;33.90;;;;;;;;;;5058405;28;20029;-81
2021/01/05 09:57:05;;;;;;;60.50;33.10;;;;;;;;;;5057448;28;20078;-81
2021/01/05 09:59:31;;;;;;;51.53;30.77;;;;;;;;;;5059392;28;20053;-81
2021/01/05 10:02:02;;;;;;;58.78;33.55;;;;;;;;;;5058256;28;20052;-81
2021/01/05 10:04:28;;;;;;;77.95;40.30;;;;;;;;;;5059442;28;20037;-81
2021/01/05 10:06:54;;;;;;;84.25;46.22;;;;;;;;;;5059264;28;20120;-81
2021/01/05 10:09:20;;;;;;;92.13;49.35;;;;;;;;;;5059320;28;20021;-81
2021/01/05 10:11:47;;;;;;;70.97;39.03;;;;;;;;;;5059490;28;20104;-81
2021/01/05 10:14:14;;;;;;;67.90;36.88;;;;;;;;;;5058948;28;20027;-81
2021/01/05 10:16:41;;;;;;;70.60;38.05;;;;;;;;;;5059049;28;20021;-81
2021/01/05 10:19:07;;;;;;;67.18;36.60;;;;;;;;;;5058929;28;20429;-80
2021/01/05 10:21:34;;;;;;;62.42;37.05;;;;;;;;;;5057696;28;20041;-81
2021/01/05 10:24:00;;;;;;;62.72;36.67;;;;;;;;;;5057904;28;20025;-81
2021/01/05 10:26:26;;;;;;;57.65;32.67;;;;;;;;;;5059194;28;20025;-81
2021/01/05 10:28:52;;;;;;;73.18;42.67;;;;;;;;;;5059151;28;20037;-81
2021/01/05 10:31:18;;;;;;;80.10;48.38;;;;;;;;;;5057382;28;20033;-81
2021/01/05 10:33:44;;;;;;;77.25;42.30;;;;;;;;;;5058946;28;20319;-81
2021/01/05 10:36:10;;;;;;;62.60;36.63;;;;;;;;;;5058830;28;20017;-81
2021/01/05 10:38:36;;;;;;;103.18;60.58;;;;;;;;;;5057547;28;20033;-81
2021/01/05 10:41:03;;;;;;;88.45;53.45;;;;;;;;;;5058965;28;20021;-81
2021/01/05 10:43:29;;;;;;;93.28;53.38;;;;;;;;;;5058612;28;20025;-82
2021/01/05 10:45:55;;;;;;;72.97;42.72;;;;;;;;;;5058769;28;20115;-81
2021/01/05 10:48:21;;;;;;;185.85;118.75;;;;;;;;;;5058540;28;20027;-82
2021/01/05 10:50:47;;;;;;;117.38;70.70;;;;;;;;;;5058376;28;20032;-81
2021/01/05 10:53:13;;;;;;;127.25;71.97;;;;;;;;;;5058421;28;20055;-83
2021/01/05 10:55:39;;;;;;;60.50;35.25;;;;;;;;;;5058424;28;20033;-81
2021/01/05 10:58:05;;;;;;;182.25;100.70;;;;;;;;;;5058312;28;20071;-81
2021/01/05 11:00:31;;;;;;;81.55;45.83;;;;;;;;;;5057162;28;20317;-81
2021/01/05 11:02:58;;;;;;;107.95;54.83;;;;;;;;;;5058191;28;20029;-81
2021/01/05 11:05:24;;;;;;;100.47;54.72;;;;;;;;;;5058201;28;20031;-81
2021/01/05 11:07:52;;;;;;;74.65;38.92;;;;;;;;;;5056727;28;20041;-81
2021/01/05 11:10:18;;;;;;;70.22;36.63;;;;;;;;;;5057096;28;20124;-81
2021/01/05 11:12:44;;;;;;;82.75;39.47;;;;;;;;;;5058007;28;20032;-81
2021/01/05 11:15:15;;;;;;;128.88;53.10;;;;;;;;;;5058204;28;20049;-81
2021/01/05 11:17:43;;;;;;;220.73;77.38;;;;;;;;;;5058291;28;20318;-81
2021/01/05 11:20:10;;;;;;;99.95;45.97;;;;;;;;;;5057886;28;20079;-81
2021/01/05 11:22:36;;;;;;;70.75;37.83;;;;;;;;;;5057902;28;20120;-81
2021/01/05 11:25:03;;;;;;;98.72;42.30;;;;;;;;;;5057957;28;20555;-81
2021/01/05 11:27:29;;;;;;;107.85;45.13;;;;;;;;;;5057805;28;20350;-81
2021/01/05 11:29:55;;;;;;;403.02;145.02;;;;;;;;;;5056694;28;20423;-81
2021/01/05 11:32:21;;;;;;;208.30;77.70;;;;;;;;;;5057825;28;20032;-82
2021/01/05 11:34:47;;;;;;;150.25;58.20;;;;;;;;;;5056598;28;20037;-81
2021/01/05 11:37:15;;;;;;;264.65;90.93;;;;;;;;;;5057656;28;20405;-81
2021/01/05 11:39:46;;;;;;;131.98;51.25;;;;;;;;;;5057614;28;20029;-81
2021/01/05 11:42:13;;;;;;;212.38;72.68;;;;;;;;;;5057624;28;20017;-82
2021/01/05 11:44:39;;;;;;;227.57;83.97;;;;;;;;;;5057841;28;20025;-81
2021/01/05 11:47:06;;;;;;;67.95;32.25;;;;;;;;;;5057430;28;20024;-81
2021/01/05 11:49:32;;;;;;;56.78;30.20;;;;;;;;;;5057693;28;20028;-81
2021/01/05 11:51:58;;;;;;;104.57;44.30;;;;;;;;;;5057591;28;20028;-81
2021/01/05 11:54:25;;;;;;;174.05;60.30;;;;;;;;;;5057352;28;20398;-81
2021/01/05 11:56:55;;;;;;;104.30;52.40;;;;;;;;;;5056210;28;20033;-82
2021/01/05 11:59:21;;;;;;;122.13;61.90;;;;;;;;;;5057311;28;20021;-89
2021/01/05 12:01:47;;;;;;;188.75;89.25;;;;;;;;;;5057555;28;20029;-84
2021/01/05 12:04:13;;;;;;;536.83;224.63;;;;;;;;;;5056279;28;20095;-82
2021/01/05 12:06:40;;;;;;;398.35;161.82;;;;;;;;;;5057081;28;20419;-81
2021/01/05 12:09:08;;;;;;;494.30;200.35;;;;;;;;;;5057244;28;20045;-81
2021/01/05 12:11:35;;;;;;;297.13;120.75;;;;;;;;;;5056053;28;20044;-81
2021/01/05 12:14:02;;;;;;;148.73;56.20;;;;;;;;;;5057070;28;20032;-81
2021/01/05 12:16:30;;;;;;;689.83;273.42;;;;;;;;;;5057121;28;20104;-81
2021/01/05 12:18:57;;;;;;;143.95;60.20;;;;;;;;;;5055515;28;20052;-81
2021/01/05 12:21:28;;;;;;;97.28;46.38;;;;;;;;;;5057219;28;20025;-81
2021/01/05 12:23:55;;;;;;;550.63;205.88;;;;;;;;;;5056944;28;20021;-81
2021/01/05 12:26:21;;;;;;;134.70;60.78;;;;;;;;;;5057008;28;20103;-81
2021/01/05 12:28:48;;;;;;;90.93;45.70;;;;;;;;;;5057141;28;20044;-81
2021/01/05 12:31:14;;;;;;;197.80;75.35;;;;;;;;;;5055732;28;20058;-81
2021/01/05 12:33:40;;;;;;;93.50;43.33;;;;;;;;;;5055815;28;20128;-80
2021/01/05 12:36:07;;;;;;;75.43;35.08;;;;;;;;;;5055852;28;20033;-80
2021/01/05 12:38:34;;;;;;;293.27;113.95;;;;;;;;;;5056880;28;20029;-80
2021/01/05 12:41:01;;;;;;;77.38;36.90;;;;;;;;;;5056683;28;20032;-80
2021/01/05 12:43:27;;;;;;;173.45;71.10;;;;;;;;;;5057683;28;20048;-80
2021/01/05 12:45:53;;;;;;;237.77;96.20;;;;;;;;;;5056557;28;20446;-81
2021/01/05 12:48:21;;;;;;;84.80;38.88;;;;;;;;;;5056960;28;20031;-80
2021/01/05 12:50:47;;;;;;;81.80;37.88;;;;;;;;;;5056720;28;20045;-80
2021/01/05 12:53:13;;;;;;;74.82;35.83;;;;;;;;;;5056373;28;20021;-80
2021/01/05 12:55:39;;;;;;;83.32;35.97;;;;;;;;;;5056547;28;20029;-80
2021/01/05 12:58:05;;;;;;;68.85;32.00;;;;;;;;;;5056841;28;20028;-80
2021/01/05 13:00:31;;;;;;;44.08;25.58;;;;;;;;;;5051987;28;20067;-80
2021/01/05 13:02:57;;;;;;;45.97;24.85;;;;;;;;;;5038648;28;20032;-80
2021/01/05 13:05:23;;;;;;;47.33;27.73;;;;;;;;;;5036571;28;20033;-80
2021/01/05 13:07:49;;;;;;;44.08;25.92;;;;;;;;;;5036418;28;20426;-80
2021/01/05 13:10:16;;;;;;;45.28;26.52;;;;;;;;;;5036730;28;20323;-80
2021/01/05 13:12:45;;;;;;;49.80;27.52;;;;;;;;;;5036877;28;20022;-80
2021/01/05 13:15:11;;;;;;;47.13;26.40;;;;;;;;;;5036801;28;20028;-80
2021/01/05 13:17:41;;;;;;;84.53;45.05;;;;;;;;;;5036331;28;20029;-80
2021/01/05 13:20:10;;;;;;;53.20;27.88;;;;;;;;;;5036455;28;20030;-80
2021/01/05 13:22:36;;;;;;;38.45;24.48;;;;;;;;;;5036530;28;20024;-80
2021/01/05 13:25:03;;;;;;;44.20;27.15;;;;;;;;;;5036355;28;20418;-81
2021/01/05 13:27:29;;;;;;;133.10;71.38;;;;;;;;;;5036413;28;20050;-80
2021/01/05 13:29:55;;;;;;;87.90;51.97;;;;;;;;;;5036752;28;20033;-76
2021/01/05 13:32:28;;;;;;;83.18;49.00;;;;;;;;;;5039763;28;20063;-77
2021/01/05 13:34:54;;;;;;;63.97;38.25;;;;;;;;;;5040142;28;20087;-77
2021/01/05 13:37:20;;;;;;;78.57;42.58;;;;;;;;;;5039893;28;20034;-77
2021/01/05 13:39:47;;;;;;;53.67;31.20;;;;;;;;;;5039796;28;20022;-77
2021/01/05 13:42:14;;;;;;;82.22;41.85;;;;;;;;;;5039738;28;20032;-77
2021/01/05 13:44:41;;;;;;;83.10;41.72;;;;;;;;;;5039062;28;20032;-76
2021/01/05 13:47:08;;;;;;;88.38;44.15;;;;;;;;;;5039794;28;20026;-76
2021/01/05 13:49:34;;;;;;;107.53;48.08;;;;;;;;;;5039632;28;20383;-76
2021/01/05 13:52:05;;;;;;;93.22;43.35;;;;;;;;;;5039830;28;20021;-77
2021/01/05 13:54:31;;;;;;;91.35;40.92;;;;;;;;;;5038343;28;20048;-76
2021/01/05 13:56:57;;;;;;;84.95;44.78;;;;;;;;;;5039800;28;20029;-81
2021/01/05 13:59:24;;;;;;;58.92;32.90;;;;;;;;;;5039432;28;20033;-81
2021/01/05 14:01:59;;;;;;;58.70;33.00;;;;;;;;;;5039586;28;20100;-80
2021/01/05 14:04:26;;;;;;;56.50;33.40;;;;;;;;;;5039493;28;20025;-80
2021/01/05 14:07:01;;;;;;;58.67;34.55;;;;;;;;;;5039218;28;20033;-80
2021/01/05 14:09:27;;;;;;;59.40;34.10;;;;;;;;;;5039306;28;20033;-80
2021/01/05 14:11:54;;;;;;;63.00;37.67;;;;;;;;;;5039263;28;20431;-80
2021/01/05 14:14:20;;;;;;;63.30;34.85;;;;;;;;;;5039239;28;20025;-80
2021/01/05 14:16:50;;;;;;;64.22;35.72;;;;;;;;;;5039216;28;20032;-80
2021/01/05 14:19:17;;;;;;;76.40;41.70;;;;;;;;;;5039168;28;20029;-80
2021/01/05 14:21:43;;;;;;;87.53;43.35;;;;;;;;;;5038929;28;20109;-80